Selected Arizona METAR Reports


Metar stations are listed by distance from this station - near to far. The 'official' reporting station for the Greater Phoenix area is KPHX - Phoenix/Sky Harbor.

KDVT - Phoenix/Deer Valley, Arizona, USA
Distance from station: NW 4mi, 7km
Updated: Fri 13 Dec 2019 0353 MST
Clear
Clear
 Wind from N
Wind: N 5 mph , 7 km/h
Temperature: 46°F , 8°C
Wind Chill: 44°F , 7°C
Dew Point: 43°F , 6°C
Humidity: 87%
Barometer: 30.18 inHg , 1022 hPa
Clouds: Clear
Visibility: 10 miles , 16 km
2019/12/13 10:53 KDVT 131053Z AUTO 35004KT 10SM CLR 08/06 A3018 RMK AO2 SLP211 T00830061
KSDL - Scottsdale, Arizona, USA
Distance from station: ESE 6mi, 9km
Updated: Fri 13 Dec 2019 0353 MST
Clear
Clear
 Wind from calm
Wind: Calm
Temperature: 46°F , 8°C
Dew Point: 43°F , 6°C
Humidity: 87%
Barometer: 30.18 inHg , 1022 hPa
Clouds: Clear
Visibility: 10 miles , 16 km
2019/12/13 10:53 KSDL 131053Z AUTO 00000KT 10SM CLR 08/06 A3018 RMK AO2 SLP212 T00780056
 
KPHX - Phoenix/Sky Harbor, Arizona, USA
Distance from station: S 15mi, 24km
Updated: Fri 13 Dec 2019 0351 MST
Partly cloudy
Partly cloudy
 Wind from E
Wind: E 3 mph , 6 km/h
Temperature: 50°F , 10°C
Dew Point: 45°F , 7°C
Humidity: 82%
Barometer: 30.17 inHg , 1021.7 hPa
Clouds: Partly cloudy
Visibility: 10 miles , 16 km
Cloud details: Partly cloudy 25000 ft
2019/12/13 10:51 KPHX 131051Z 09003KT 10SM SCT250 10/07 A3017 RMK AO2 SLP208 T01000067
KGEU - Glendale, Arizona, USA
Distance from station: WSW 19mi, 30km
Updated: Thu 12 Dec 2019 1958 MST
NOT Current
Mostly cloudy
Mostly cloudy
 Wind from calm
Wind: Calm
Temperature: 57°F , 14°C
Dew Point: 48°F , 9°C
Humidity: 72%
Barometer: 30.20 inHg , 1022.7 hPa
Clouds: Mostly cloudy
Visibility: 10 miles , 16 km
Cloud details: Mostly cloudy 20000 ft
2019/12/13 02:58 KGEU 130258Z 00000KT 10SM BKN200 14/09 A3020 RMK LAST
 
KFFZ - Mesa/Falcon Field, Arizona, USA
Distance from station: SE 21mi, 33km
Updated: Fri 13 Dec 2019 0354 MST
Clear
Clear
 Wind from NE
Wind: NE 3 mph , 6 km/h
Temperature: 50°F , 10°C
Dew Point: 45°F , 7°C
Humidity: 82%
Barometer: 30.18 inHg , 1022 hPa
Clouds: Clear
Visibility: 10 miles , 16 km
2019/12/13 10:54 KFFZ 131054Z AUTO 04003KT 10SM CLR 10/07 A3018 RMK AO2 SLP207 T01000067
KLUF - Luke AFB/Glendale, Arizona, USA
Distance from station: WSW 23mi, 36km
Updated: Fri 13 Dec 2019 0358 MST
Clear
Clear
 Wind from N
Wind: N 6 mph , 9 km/h
Temperature: 45°F , 7°C
Wind Chill: 42°F , 6°C
Dew Point: 45°F , 7°C
Humidity: 100%
Barometer: 30.16 inHg , 1021.3 hPa
Clouds: Clear
Visibility: 10 miles , 16 km
2019/12/13 10:58 KLUF 131058Z AUTO 01005KT 10SM CLR 07/07 A3016 RMK AO2 SLP211 T00740073 $
 
KGYR - Goodyear Municipal, Arizona, USA
Distance from station: SW 26mi, 42km
Updated: Thu 12 Dec 2019 2047 MST
NOT Current
Mostly cloudy
Mostly cloudy
 Wind from calm
Wind: Calm
Temperature: 55°F , 13°C
Dew Point: 46°F , 8°C
Humidity: 72%
Barometer: 30.20 inHg , 1022.7 hPa
Clouds: Mostly cloudy
Visibility: 10 miles , 16 km
Cloud details: Mostly cloudy 25000 ft
2019/12/13 03:47 KGYR 130347Z 00000KT 10SM BKN250 13/08 A3020 RMK LAST
KIWA - Chandler/Mesa, Arizona, USA
Distance from station: SE 32mi, 51km
Updated: Fri 13 Dec 2019 0415 MST
Clear
Clear
 Wind from ESE
Wind: ESE 8 mph , 13 km/h
Temperature: 45°F , 7°C
Wind Chill: 41°F , 5°C
Dew Point: 43°F , 6°C
Humidity: 93%
Barometer: 30.19 inHg , 1022.4 hPa
Clouds: Clear
Visibility: 10 miles , 16 km
2019/12/13 11:15 KIWA 131115Z AUTO 11007KT 10SM CLR 07/06 A3019 RMK AO2 T00690056
 
KBXK - Buckeye, Arizona, USA
Distance from station: WSW 42mi, 68km
Updated: Fri 13 Dec 2019 0415 MST
Clear
Clear
 Wind from calm
Wind: Calm
Temperature: 43°F , 6°C
Dew Point: 43°F , 6°C
Humidity: 100%
Barometer: 30.17 inHg , 1021.7 hPa
Clouds: Clear
Visibility: 10 miles , 16 km
2019/12/13 11:15 KBXK 131115Z AUTO 00000KT 10SM CLR 06/06 A3017 RMK A01
KCGZ - Casa Grande, Arizona, USA
Distance from station: SSE 50mi, 81km
Updated: Fri 13 Dec 2019 0356 MST
Mist, Clear
Mist, Clear
 Wind from NNE
Wind: NNE 3 mph , 6 km/h
Temperature: 43°F , 6°C
Dew Point: 43°F , 6°C
Humidity: 100%
Barometer: 30.19 inHg , 1022.4 hPa
Summary: Mist
Clouds: Clear
Visibility: 4 miles , 6 km
2019/12/13 10:56 KCGZ 131056Z AUTO 02003KT 4SM BR CLR 06/06 A3019 RMK AO2 SLP222 T00610061
 
KPAN - Payson, Arizona, USA
Distance from station: NE 57mi, 91km
Updated: Fri 13 Dec 2019 0415 MST
Clear
Clear
 Wind from calm
Wind: Calm
Temperature: 43°F , 6°C
Dew Point: 27°F , -3°C
Humidity: 53%
Barometer: 30.25 inHg , 1024.4 hPa
Clouds: Clear
Visibility: 10 miles , 16 km
2019/12/13 11:15 KPAN 131115Z AUTO 00000KT 10SM CLR 06/M03 A3025 RMK AO2
KGBN - Gila Bend (aaf), Arizona, USA
Distance from station: SW 68mi, 109km
Updated: Wed 04 Dec 2019 0855 MST
NOT Current
Mostly cloudy
Mostly cloudy
 Wind from calm
Wind: Calm
Temperature: 55°F , 13°C
Dew Point: 54°F , 12°C
Humidity: 94%
Barometer: 30.02 inHg , 1016.6 hPa
Clouds: Mostly cloudy
Visibility: 10 miles , 16 km
Cloud details: Mostly cloudy 10000 ft
Mostly cloudy 14000 ft
2019/12/04 15:55 KGBN 041555Z 00000KT 10SM BKN100 BKN140 13/12 A3002 RMK AO2A SLP162
 
KPRC - Prescott, Arizona, USA
Distance from station: NNW 73mi, 118km
Updated: Fri 13 Dec 2019 0353 MST
Clear
Clear
 Wind from SSW
Wind: SSW 5 mph , 7 km/h
Temperature: 34°F , 1°C
Wind Chill: 29°F , -2°C
Dew Point: 27°F , -3°C
Humidity: 75%
Barometer: 30.24 inHg , 1024 hPa
Clouds: Clear
Visibility: 10 miles , 16 km
2019/12/13 10:53 KPRC 131053Z AUTO 21004KT 10SM CLR 01/M03 A3024 RMK AO2 SLP210 T00061028
KSEZ - Sedona, Arizona, USA
Distance from station: N 84mi, 135km
Updated: Fri 13 Dec 2019 0415 MST
Clear
Clear
 Wind from NE
Wind: NE 8 mph , 13 km/h
Temperature: 45°F , 7°C
Wind Chill: 41°F , 5°C
Dew Point: 30°F , -1°C
Humidity: 57%
Barometer: 30.24 inHg , 1024 hPa
Clouds: Clear
Visibility: 10 miles , 16 km
2019/12/13 11:15 KSEZ 131115Z AUTO 05007KT 10SM CLR 07/M01 A3024 RMK AO2
 
KFLG - Flagstaff, Arizona, USA
Distance from station: N 105mi, 168km
Updated: Fri 13 Dec 2019 0357 MST
Clear
Clear
 Wind from W
Wind: W 3 mph , 6 km/h
Temperature: 28°F , -2°C
Dew Point: 25°F , -4°C
Humidity: 86%
Barometer: 30.27 inHg , 1025.1 hPa
Clouds: Clear
Visibility: 10 miles , 16 km
2019/12/13 10:57 KFLG 131057Z AUTO 26003KT 10SM CLR M02/M04 A3027 RMK AO2 SLP214 T10171044
KRYN - Tucson/Ryan Field, Arizona, USA
Distance from station: SSE 114mi, 184km
Updated: Thu 12 Dec 2019 1945 MST
NOT Current
Clear
Clear
 Wind from SSW
Wind: SSW 6 mph , 9 km/h
Temperature: 54°F , 12°C
Dew Point: 46°F , 8°C
Humidity: 77%
Barometer: 30.23 inHg , 1023.7 hPa
Clouds: Clear
Visibility: 10 miles , 16 km
2019/12/13 02:45 KRYN 130245Z 20005KT 10SM CLR 12/08 A3023 RMK LAST
 
KCMR - Williams Clark, Arizona, USA
Distance from station: N 115mi, 185km
Updated: Fri 13 Dec 2019 0415 MST
Clear
Clear
 Wind from varies
Wind: varies 5 mph , 7 km/h
Temperature: 45°F , 7°C
Wind Chill: 42°F , 6°C
Dew Point: 25°F , -4°C
Humidity: 46%
Barometer: 30.28 inHg , 1025.4 hPa
Clouds: Clear
Visibility: 10 miles , 16 km
2019/12/13 11:15 KCMR 131115Z AUTO VRB04KT 10SM CLR 07/M04 A3028 RMK AO2 PWINO
KINW - Winslow, Arizona, USA
Distance from station: NE 121mi, 194km
Updated: Fri 13 Dec 2019 0356 MST
Clear
Clear
 Wind from SE
Wind: SE 6 mph , 9 km/h
Temperature: 34°F , 1°C
Wind Chill: 29°F , -2°C
Dew Point: 28°F , -2°C
Humidity: 81%
Barometer: 30.18 inHg , 1022 hPa
Clouds: Clear
Visibility: 10 miles , 16 km
2019/12/13 10:56 KINW 131056Z AUTO 13005KT 10SM CLR 01/M02 A3018 RMK AO2 SLP207 T00061017
 
KTUS - Tucson, Arizona, USA
Distance from station: SSE 121mi, 195km
Updated: Fri 13 Dec 2019 0353 MST
Clear
Clear
 Wind from SSE
Wind: SSE 5 mph , 7 km/h
Temperature: 45°F , 7°C
Wind Chill: 42°F , 6°C
Dew Point: 36°F , 2°C
Humidity: 71%
Barometer: 30.20 inHg , 1022.7 hPa
Clouds: Clear
Visibility: 10 miles , 16 km
2019/12/13 10:53 KTUS 131053Z 15004KT 10SM CLR 07/02 A3020 RMK AO2 SLP208 T00670017
KDMA - Davis AFB/Tucson, Arizona, USA
Distance from station: SE 122mi, 196km
Updated: Fri 13 Dec 2019 0358 MST
Clear
Clear
 Wind from calm
Wind: Calm
Temperature: 41°F , 5°C
Dew Point: 36°F , 2°C
Humidity: 81%
Barometer: 30.18 inHg , 1022 hPa
Clouds: Clear
Visibility: 10 miles , 16 km
2019/12/13 10:58 KDMA 131058Z AUTO 00000KT 10SM CLR 05/02 A3018 RMK AO2 SLP204 T00510021 $
 
KSOW - Show Low Municipal, Arizona, USA
Distance from station: ENE 123mi, 198km
Updated: Fri 13 Dec 2019 0415 MST
Clear
Clear
 Wind from SSE
Wind: SSE 5 mph , 7 km/h
Temperature: 36°F , 2°C
Wind Chill: 32°F , 0°C
Dew Point: 27°F , -3°C
Humidity: 70%
Barometer: 30.27 inHg , 1025.1 hPa
Clouds: Clear
Visibility: 10 miles , 16 km
2019/12/13 11:15 KSOW 131115Z AUTO 16004KT 10SM CLR 02/M03 A3027 RMK AO2
KSAD - Safford, Arizona, USA
Distance from station: ESE 148mi, 238km
Updated: Fri 13 Dec 2019 0351 MST
Clear
Clear
 Wind from E
Wind: E 5 mph , 7 km/h
Temperature: 39°F , 4°C
Wind Chill: 35°F , 2°C
Dew Point: 37°F , 3°C
Humidity: 93%
Barometer: 30.18 inHg , 1022 hPa
Clouds: Clear
Visibility: 10 miles , 16 km
2019/12/13 10:51 KSAD 131051Z AUTO 09004KT 10SM CLR 04/03 A3018 RMK AO2 SLP207 T00390033